Flight Track Log - Related Links

Times and Time Zones

All times are in EDT time to prevent confusion due to time zone crossing. See the SWA3321 flight status page for this flight to view local times or setup timezone preferences in your user account.

Time Position Orientation Groundspeed Altitude Reporting Facility
EDT Latitude Longitude Course Direction KTS MPH feet Rate Location/Type
Mon 12:32:15 PM 28.4000 -81.3000 156° South 164 189 800  Level Orlando TRACON
Mon 12:33:03 PM 28.3667 -81.2833 156° South 204 235 2,300 1,765 Climbing Orlando TRACON
Mon 12:33:57 PM 28.3167 -81.2500 150° Southeast 233 268 3,800 1,826 Climbing Orlando TRACON
Mon 12:34:58 PM 28.2833 -81.2000 127° Southeast 243 280 5,800 2,364 Climbing Orlando TRACON
Mon 12:36:09 PM 28.3500 -81.1667 24° Northeast 279 321 9,000 2,544 Climbing Orlando TRACON
Mon 12:37:03 PM 28.4167 -81.2000 336° Northwest 314 361 11,100 2,639 Climbing Orlando TRACON
Mon 12:39:20 PM 28.6300 -81.2558 347° North 373 429 17,400 2,724 Climbing Jacksonville Center
Mon 12:40:19 PM 28.7306 -81.2850 346° North 373 429 20,000 2,471 Climbing Jacksonville Center
Mon 12:41:19 PM 28.8372 -81.3142 347° North 379 436 22,300 1,500 Climbing Jacksonville Center
Mon 12:42:19 PM 28.9442 -81.3481 345° North 385 443 23,000 347 Climbing Jacksonville Center
Mon 12:43:20 PM 29.0550 -81.3772 347° North 390 449 23,000 900 Level Jacksonville Center
Mon 12:44:19 PM 29.1681 -81.3944 352° North 396 456 24,800 1,800 Climbing Jacksonville Center
Mon 12:45:20 PM 29.2831 -81.4069 355° North 406 467 26,600 1,835 Climbing Jacksonville Center
Mon 12:46:20 PM 29.4125 -81.4242 353° North 417 480 28,500 1,765 Climbing Jacksonville Center
Mon 12:47:19 PM 29.5239 -81.4772 337° Northwest 422 486 30,100 1,613 Climbing Jacksonville Center
Mon 12:48:19 PM 29.6372 -81.5331 337° Northwest 433 498 31,700 1,488 Climbing Jacksonville Center
Mon 12:49:20 PM 29.7506 -81.5864 338° Northwest 438 504 33,100 1,600 Climbing Jacksonville Center
Mon 12:50:19 PM 29.8678 -81.6375 339° North 438 504 34,900 1,916 Climbing Jacksonville Center
Mon 12:51:19 PM 29.9789 -81.6842 340° North 438 504 36,900 1,636 Climbing Jacksonville Center
Mon 12:52:20 PM 30.1019 -81.6753 North 425 489 38,200 1,041 Climbing Jacksonville Center
Mon 12:53:20 PM 30.2269 -81.6425 13° North 432 497 39,000 403 Climbing Jacksonville Center
Mon 12:54:19 PM 30.3519 -81.6144 11° North 444 511 39,000  Level Jacksonville Center
Mon 12:55:20 PM 30.4789 -81.5836 12° North 450 518 39,000  Level Jacksonville Center
Mon 12:56:19 PM 30.6042 -81.5578 10° North 455 524 39,000  Level Jacksonville Center
Mon 12:57:19 PM 30.7144 -81.5322 11° North 450 518 39,000  Level Jacksonville Center
Mon 12:58:20 PM 30.8372 -81.5061 10° North 450 518 39,000  Level Jacksonville Center
Mon 12:59:19 PM 30.9603 -81.4778 11° North 450 518 39,000  Level Jacksonville Center
Mon 01:00:19 PM 31.0811 -81.4517 10° North 450 518 39,000  Level Jacksonville Center
Mon 01:01:20 PM 31.2017 -81.4231 11° North 445 512 39,000  Level Jacksonville Center
Mon 01:02:20 PM 31.3222 -81.3750 19° North 445 512 39,000  Level Jacksonville Center
Mon 01:03:20 PM 31.4467 -81.2975 28° Northeast 451 519 39,000  Level Jacksonville Center
Mon 01:04:19 PM 31.5525 -81.2397 25° Northeast 462 532 39,000  Level Jacksonville Center
Mon 01:05:20 PM 31.6808 -81.1667 26° Northeast 462 532 39,000  Level Jacksonville Center
Mon 01:06:19 PM 31.7947 -81.1008 26° Northeast 462 532 39,000  Level Jacksonville Center
Mon 01:07:19 PM 31.9025 -81.0375 27° Northeast 463 533 39,000  Level Jacksonville Center
Mon 01:08:19 PM 32.0328 -80.9614 26° Northeast 463 533 39,000  Level Jacksonville Center
Mon 01:09:19 PM 32.1383 -80.9053 24° Northeast 463 533 39,000  Level Jacksonville Center
Mon 01:10:20 PM 32.2689 -80.8311 26° Northeast 458 527 39,000  Level Jacksonville Center
Mon 01:11:19 PM 32.3825 -80.7647 26° Northeast 458 527 39,000  Level Jacksonville Center
Mon 01:12:19 PM 32.4983 -80.6956 27° Northeast 466 536 39,000  Level Jacksonville Center
Mon 01:13:20 PM 32.6139 -80.6261 27° Northeast 459 528 39,000  Level Jacksonville Center
Mon 01:14:19 PM 32.7294 -80.5589 26° Northeast 464 534 39,000  Level Jacksonville Center
Mon 01:15:20 PM 32.8472 -80.4917 26° Northeast 464 534 39,000  Level Jacksonville Center
Mon 01:16:20 PM 32.9608 -80.4267 26° Northeast 458 527 39,000  Level Jacksonville Center
Mon 01:17:19 PM 33.0761 -80.3517 29° Northeast 463 533 39,000  Level Jacksonville Center
Mon 01:18:19 PM 33.1814 -80.2917 25° Northeast 468 539 39,000  Level Jacksonville Center
Mon 01:19:20 PM 33.3133 -80.2156 26° Northeast 468 539 39,000  Level Jacksonville Center
Mon 01:20:19 PM 33.4289 -80.1475 26° Northeast 461 531 39,000  Level Jacksonville Center
Mon 01:21:19 PM 33.5442 -80.0767 27° Northeast 461 531 39,000  Level Jacksonville Center
Mon 01:22:19 PM 33.6367 -80.0214 26° Northeast 461 531 39,000  Level Jacksonville Center
Mon 01:23:19 PM 33.7500 -79.9528 27° Northeast 461 531 39,000  Level Jacksonville Center
Mon 01:24:19 PM 33.8756 -79.8758 27° Northeast 461 531 39,000  Level Jacksonville Center
Mon 01:25:20 PM 33.9928 -79.8042 27° Northeast 461 531 39,000  Level Jacksonville Center
Mon 01:27:15 PM 34.2214 -79.6681 26° Northeast 460 529 39,000  Level Washington Center
Mon 01:28:15 PM 34.3297 -79.6081 25° Northeast 460 529 39,000  Level Washington Center
Mon 01:29:15 PM 34.4467 -79.5458 24° Northeast 460 529 39,000  Level Washington Center
Mon 01:30:15 PM 34.5633 -79.4858 23° Northeast 454 522 39,000  Level Washington Center
Mon 01:31:15 PM 34.6822 -79.4233 23° Northeast 454 522 39,000  Level Washington Center
Mon 01:32:15 PM 34.7989 -79.3631 23° Northeast 454 522 39,000  Level Washington Center
Mon 01:33:15 PM 34.9156 -79.3000 24° Northeast 454 522 39,000  Level Washington Center
Mon 01:34:15 PM 35.0344 -79.2369 23° Northeast 454 522 39,000  Level Washington Center
Mon 01:35:15 PM 35.1489 -79.1786 23° Northeast 448 516 39,000  Level Washington Center
Mon 01:36:15 PM 35.2653 -79.1153 24° Northeast 448 516 39,000  Level Washington Center
Mon 01:37:15 PM 35.3842 -79.0517 24° Northeast 448 516 39,000  Level Washington Center
Mon 01:38:15 PM 35.5008 -78.9878 24° Northeast 448 516 39,000  Level Washington Center
Mon 01:39:15 PM 35.6192 -78.9264 23° Northeast 448 516 39,000  Level Washington Center
Mon 01:40:15 PM 35.7336 -78.8622 24° Northeast 448 516 39,000  Level Washington Center
Mon 01:41:15 PM 35.8586 -78.7956 23° Northeast 448 516 39,000  Level Washington Center
Mon 01:42:15 PM 35.9653 -78.7075 34° Northeast 449 517 39,000  Level Washington Center
Mon 01:43:15 PM 36.0719 -78.6142 35° Northeast 455 524 39,000  Level Washington Center
Mon 01:44:15 PM 36.1767 -78.5203 36° Northeast 460 529 39,000  Level Washington Center
Mon 01:45:15 PM 36.2811 -78.4289 35° Northeast 460 529 39,000  Level Washington Center
Mon 01:46:15 PM 36.3875 -78.3347 35° Northeast 460 529 39,000  Level Washington Center
Mon 01:47:15 PM 36.4919 -78.2403 36° Northeast 460 529 39,000  Level Washington Center
Mon 01:48:15 PM 36.5961 -78.1481 35° Northeast 460 529 39,000  Level Washington Center
Mon 01:49:15 PM 36.6961 -78.0528 37° Northeast 451 519 39,000  Level Washington Center
Mon 01:50:15 PM 36.8003 -77.9603 35° Northeast 451 519 39,000  Level Washington Center
Mon 01:51:15 PM 36.8964 -77.8539 42° Northeast 457 526 39,000  Level Washington Center
Mon 01:52:15 PM 36.9717 -77.7211 55° Northeast 457 526 39,000  Level Washington Center
Mon 01:53:15 PM 37.0511 -77.5906 53° Northeast 462 532 39,000  Level Washington Center
Mon 01:54:15 PM 37.1200 -77.4672 55° Northeast 469 540 39,000  Level Washington Center
Mon 01:55:15 PM 37.1969 -77.3389 53° Northeast 469 540 39,000  Level Washington Center
Mon 01:56:15 PM 37.2739 -77.2100 53° Northeast 469 540 39,000  Level Washington Center
Mon 01:57:15 PM 37.3756 -77.0814 45° Northeast 474 545 39,000  Level Washington Center
Mon 01:58:15 PM 37.4725 -77.0075 31° Northeast 460 529 39,000  Level Washington Center
Mon 01:59:15 PM 37.5944 -76.9181 30° Northeast 460 529 39,000  Level Washington Center
Mon 02:00:15 PM 37.7036 -76.8386 30° Northeast 454 522 39,000  Level Washington Center
Mon 02:01:15 PM 37.8108 -76.7589 30° Northeast 449 517 39,000  Level Washington Center
Mon 02:02:15 PM 37.9200 -76.6764 31° Northeast 449 517 39,000  Level Washington Center
Mon 02:03:15 PM 38.0272 -76.5961 31° Northeast 449 517 39,000  Level Washington Center
Mon 02:04:15 PM 38.1364 -76.5158 30° Northeast 449 517 39,000  Level Washington Center
Mon 02:05:15 PM 38.2411 -76.4325 32° Northeast 449 517 39,000  Level Washington Center
Mon 02:06:15 PM 38.3375 -76.3542 33° Northeast 449 517 39,000  Level Washington Center
Mon 02:07:15 PM 38.4528 -76.2492 35° Northeast 455 524 39,000  Level Washington Center
Mon 02:08:15 PM 38.5556 -76.1519 36° Northeast 460 529 39,000  Level Washington Center
Mon 02:09:15 PM 38.6603 -76.0594 35° Northeast 460 529 39,000  Level Washington Center
Mon 02:10:15 PM 38.7628 -75.9617 37° Northeast 460 529 39,000  Level Washington Center
Mon 02:11:15 PM 38.8672 -75.8636 36° Northeast 460 529 39,000  Level Washington Center
Mon 02:12:15 PM 38.9694 -75.7678 36° Northeast 460 529 39,000  Level Washington Center
Mon 02:13:15 PM 39.0717 -75.6692 37° Northeast 460 529 39,000  Level Washington Center
Mon 02:14:15 PM 39.1717 -75.5728 37° Northeast 460 529 39,000  Level Washington Center
Mon 02:15:15 PM 39.2717 -75.4789 36° Northeast 460 529 39,000 -300 Level Washington Center
Mon 02:16:15 PM 39.3758 -75.3956 32° Northeast 448 516 38,400 -750 Descending Washington Center
Mon 02:17:15 PM 39.4819 -75.3361 23° Northeast 428 493 37,500 -700 Descending Washington Center
Mon 02:18:15 PM 39.5861 -75.2819 22° Northeast 414 476 37,000 -250 Descending Washington Center
Mon 02:19:15 PM 39.6964 -75.2219 23° Northeast 409 471 37,000  Level Washington Center
Mon 02:20:15 PM 39.8025 -75.1675 22° Northeast 414 476 37,000  Level Washington Center
Mon 02:20:58 PM 39.8750 -75.1178 28° Northeast 412 474 37,000  Level New York Center
Mon 02:21:59 PM 39.9897 -75.0625 20° North 425 489 37,000  Level New York Center
Mon 02:23:00 PM 40.0961 -74.9986 25° Northeast 425 489 37,000 -50 Level New York Center
Mon 02:23:58 PM 40.2006 -74.9369 24° Northeast 418 481 36,900 -559 Descending New York Center
Mon 02:24:58 PM 40.3108 -74.8836 20° North 413 475 35,900 -992 Descending New York Center
Mon 02:25:59 PM 40.4186 -74.8383 18° North 413 475 34,900 -446 Descending New York Center
Mon 02:26:59 PM 40.5308 -74.7875 19° North 413 475 35,000 50 Climbing New York Center
Mon 02:27:59 PM 40.6386 -74.7447 17° North 408 470 35,000  Level New York Center
Mon 02:29:00 PM 40.7464 -74.6961 19° North 408 470 35,000  Level New York Center
Mon 02:31:49 PM 41.0381 -74.5672 18° North 407 468 35,000  Level Boston Center
Mon 02:32:49 PM 41.1433 -74.5211 18° North 402 463 35,000  Level Boston Center
Mon 02:33:50 PM 41.2483 -74.4775 17° North 397 457 35,000  Level Boston Center
Mon 02:34:51 PM 41.3531 -74.4367 16° North 392 451 35,000  Level Boston Center
Mon 02:35:51 PM 41.4708 -74.3822 19° North 392 451 35,000 -102 Level Boston Center
Mon 02:36:49 PM 41.5633 -74.3406 19° North 387 445 34,800 -595 Descending Boston Center
Mon 02:37:52 PM 41.6744 -74.2911 18° North 397 457 33,800 -1,300 Descending Boston Center
Mon 02:38:49 PM 41.7858 -74.2414 18° North 409 471 32,200 -1,525 Descending Boston Center
Mon 02:39:50 PM 41.8972 -74.1889 19° North 414 476 30,800 -1,190 Descending Boston Center
Mon 02:40:50 PM 41.9783 -74.0628 49° Northeast 420 483 29,800 -893 Descending Boston Center
Mon 02:41:51 PM 42.0469 -73.9219 57° Northeast 420 483 29,000 -397 Descending Boston Center
Mon 02:42:51 PM 42.1131 -73.7864 57° Northeast 436 502 29,000  Level Boston Center
Mon 02:43:52 PM 42.2083 -73.6678 43° Northeast 441 507 29,000 -610 Level Boston Center
Mon 02:44:49 PM 42.3053 -73.5658 38° Northeast 441 507 27,800 -1,744 Descending Boston Center
Mon 02:45:49 PM 42.3978 -73.4747 36° Northeast 430 495 25,600 -1,587 Descending Boston Center
Mon 02:46:50 PM 42.4614 -73.3350 58° Northeast 414 476 24,600 -992 Descending Boston Center
Mon 02:47:50 PM 42.5106 -73.1864 66° East 420 483 23,600 -1,000 Descending Boston Center
Mon 02:48:50 PM 42.5550 -73.0403 68° East 406 467 22,600 -992 Descending Boston Center
Mon 02:49:51 PM 42.5994 -72.8997 67° East 406 467 21,600 -1,261 Descending Boston Center
Mon 02:50:49 PM 42.6356 -72.7561 71° East 406 467 20,100 -1,765 Descending Boston Center
Mon 02:51:50 PM 42.6711 -72.6122 71° East 390 449 18,100 -1,884 Descending Boston Center
Mon 02:52:50 PM 42.7025 -72.4769 72° East 381 438 16,300 -1,934 Descending Boston Center
Mon 02:53:51 PM 42.7317 -72.3439 73° East 375 432 14,200 -2,017 Descending Boston Center
Mon 02:54:49 PM 42.7544 -72.2253 75° East 365 420 12,300 -1,916 Descending Boston Center
Mon 02:55:50 PM 42.7875 -72.0864 72° East 353 406 10,400 -1,230 Descending Boston Center
Mon 02:56:51 PM 42.8081 -71.9872 74° East 325 374 9,800 -893 Descending Boston Center
Mon 02:57:51 PM 42.8472 -71.8794 64° Northeast 289 333 8,600 -1,271 Descending Boston Center
Mon 02:58:49 PM 42.8800 -71.7997 61° Northeast 266 306 7,300 -1,462 Descending Boston Center
Mon 02:59:50 PM 42.9233 -71.7028 59° Northeast 261 300 5,700 -1,328 Descending Boston Center
Mon 03:00:51 PM 42.9603 -71.6317 55° Northeast 267 307 4,600 -908 Descending Boston Center
Mon 03:01:49 PM 43.0033 -71.5431 56° Northeast 255 293 3,900 -661 Descending Boston Center
Mon 03:02:49 PM 43.0300 -71.4828 59° Northeast 224 258 3,300 -942 Descending Boston Center
Mon 03:03:50 PM 43.0086 -71.4264 117° Southeast 158 182 2,000 -942 Descending Boston Center
Mon 03:04:50 PM 42.9814 -71.3986 143° Southeast 136 157 1,400 -793 Descending Boston Center
Mon 03:05:51 PM 42.9461 -71.4275 211° Southwest 122 140 400 -504 Descending Boston Center
Mon 03:06:49 PM 42.9169 -71.4253 177° South 122 140 400 9,378 Level Boston Center
Mon 03:07:50 PM 42.8856 -71.4314 188° South 122 140 19,000 9,148 Climbing Boston Center
Mon 03:08:51 PM 42.8544 -71.4403 192° South 122 140 19,000  Level Boston Center
Mon 03:10:00 PM 42.9167 -71.4333 316° Northwest  Level FlightAware Approximate
Mon 03:17:00 PM 42.9328 -71.4358 316° Northwest  Level Estimated
Mon 03:18:00 PM 42.9328 -71.4358 316° Northwest  Level Estimated
Mon 03:19:00 PM 42.9328 -71.4358 316° Northwest  Level Estimated
Mon 03:20:00 PM 42.9328 -71.4358 316° Northwest  Level Estimated
Mon 03:21:00 PM 42.9328 -71.4358 316° Northwest  Level Estimated

Login

Don't have an account? Register now (free) for customized features, flight alerts, and more!